Time;durP1;ratioP1;P1;durP2;ratioP2;P2;SDS_P1;SDS_P2;PMS_P1;PMS_P2;Temp;Humidity;BMP_temperature;BMP_pressure;BME280_temperature;BME280_humidity;BME280_pressure;Samples;Min_cycle;Max_cycle;Signal;HPM_P1;HPM_P2
2022/09/21 00:01:24;;;;;;;6.17;4.70;;;;;;;8.70;87.46;98984.91;1653429;86;25681;-60
2022/09/21 00:03:57;;;;;;;7.78;5.12;;;;;;;8.70;87.27;98982.72;1653693;85;25673;-60
2022/09/21 00:06:26;;;;;;;6.78;4.20;;;;;;;8.73;87.33;98980.23;1653371;86;25803;-59
2022/09/21 00:08:53;;;;;;;8.43;4.10;;;;;;;8.71;87.66;98981.61;1653421;86;25428;-60
2022/09/21 00:11:25;;;;;;;5.65;3.45;;;;;;;8.71;87.60;98978.33;1653275;86;27440;-60
2022/09/21 00:14:01;;;;;;;7.70;3.45;;;;;;;8.75;87.61;98973.11;1653273;86;25898;-60
2022/09/21 00:16:30;;;;;;;6.97;3.80;;;;;;;8.78;87.50;98981.51;1653579;86;25467;-60
2022/09/21 00:18:57;;;;;;;4.92;3.17;;;;;;;8.80;87.83;98981.22;1653285;86;25651;-60
2022/09/21 00:21:23;;;;;;;6.28;3.20;;;;;;;8.83;87.74;98976.53;1653607;86;25504;-60
2022/09/21 00:23:50;;;;;;;5.28;3.37;;;;;;;8.85;87.55;98984.44;1653674;86;28568;-60
2022/09/21 00:26:19;;;;;;;5.62;3.00;;;;;;;8.89;87.65;98982.19;1653628;86;25627;-60
2022/09/21 00:28:49;;;;;;;4.37;3.22;;;;;;;8.86;87.57;98977.31;1653652;86;25693;-60
2022/09/21 00:31:17;;;;;;;4.50;2.80;;;;;;;8.87;87.62;98976.77;1659555;84;25748;-60
2022/09/21 00:33:44;;;;;;;4.47;3.10;;;;;;;8.87;87.62;98983.59;1685440;84;25401;-60
2022/09/21 00:36:15;;;;;;;4.28;2.80;;;;;;;8.87;87.45;98986.33;1685384;84;27439;-60
2022/09/21 00:38:43;;;;;;;7.78;3.37;;;;;;;8.86;87.77;98989.61;1685225;84;25620;-60
2022/09/21 00:41:11;;;;;;;4.80;3.40;;;;;;;8.88;87.72;98983.84;1685384;84;25642;-59
2022/09/21 00:43:43;;;;;;;5.78;3.02;;;;;;;8.86;87.69;98985.51;1685503;84;25749;-60
2022/09/21 00:46:23;;;;;;;4.78;3.00;;;;;;;8.91;87.86;98988.73;1685587;84;25501;-60
2022/09/21 00:48:50;;;;;;;4.58;3.15;;;;;;;8.94;87.83;98992.78;1684859;84;27375;-59
2022/09/21 00:51:21;;;;;;;4.67;3.08;;;;;;;8.94;87.89;98982.67;1685265;85;25426;-60
2022/09/21 00:54:03;;;;;;;5.20;3.15;;;;;;;8.94;88.00;98993.61;1685189;84;25430;-59
2022/09/21 00:56:44;;;;;;;3.83;3.00;;;;;;;8.91;88.30;98991.45;1685113;84;25657;-60
2022/09/21 00:59:19;;;;;;;5.00;3.27;;;;;;;8.93;88.12;98983.79;1684929;85;25651;-59
2022/09/21 01:01:51;;;;;;;6.03;3.52;;;;;;;8.93;88.16;98986.52;1685219;84;27486;-59
2022/09/21 01:04:28;;;;;;;4.35;3.08;;;;;;;8.94;88.49;98990.05;1685300;84;25434;-60
2022/09/21 01:07:00;;;;;;;6.10;3.30;;;;;;;8.91;88.76;98989.55;1683124;85;25700;-59
2022/09/21 01:09:33;;;;;;;5.12;3.58;;;;;;;8.91;88.35;98992.28;1685207;84;25731;-59
2022/09/21 01:12:23;;;;;;;5.12;3.77;;;;;;;8.88;88.52;99000.25;1685390;84;25779;-59
2022/09/21 01:15:37;;;;;;;6.53;4.35;;;;;;;8.89;88.47;98994.48;1685019;84;27778;-59
2022/09/21 01:18:45;;;;;;;8.63;5.15;;;;;;;8.87;88.47;98995.33;1685260;84;25860;-59
2022/09/21 01:21:30;;;;;;;8.40;4.50;;;;;;;8.90;88.34;99001.57;1685388;84;25434;-59
2022/09/21 01:24:22;;;;;;;9.28;5.30;;;;;;;8.94;88.05;98997.70;1685215;84;25901;-59
2022/09/21 01:27:09;;;;;;;6.28;4.80;;;;;;;8.94;88.22;98997.70;1685366;84;25576;-60
2022/09/21 01:30:01;;;;;;;8.15;4.83;;;;;;;8.89;88.32;99002.69;1685276;85;28219;-60
2022/09/21 01:32:38;;;;;;;6.85;4.30;;;;;;;8.88;88.52;99001.61;1681138;84;26086;-60
2022/09/21 01:35:15;;;;;;;7.55;4.72;;;;;;;8.87;88.24;99005.47;1677862;85;25454;-60
2022/09/21 01:37:54;;;;;;;9.30;5.42;;;;;;;8.87;88.29;99003.52;1677353;85;26254;-59
2022/09/21 01:40:34;;;;;;;10.20;5.58;;;;;;;8.88;88.39;99012.00;1677703;85;25738;-60
2022/09/21 01:43:03;;;;;;;10.13;5.58;;;;;;;8.84;88.37;99005.48;1678219;85;27408;-60
2022/09/21 01:45:40;;;;;;;8.18;5.40;;;;;;;8.84;88.50;99010.94;1677800;85;25422;-61
2022/09/21 01:48:07;;;;;;;7.67;5.95;;;;;;;8.81;88.74;99009.37;1651994;85;25643;-61
2022/09/21 01:50:47;;;;;;;7.65;5.60;;;;;;;8.81;89.05;99006.06;1677876;85;27001;-61
2022/09/21 01:53:22;;;;;;;8.47;5.77;;;;;;;8.78;89.05;99011.56;1678229;85;25507;-60
2022/09/21 01:55:53;;;;;;;10.15;5.55;;;;;;;8.82;88.63;99013.72;1677864;85;27466;-60
2022/09/21 01:58:25;;;;;;;;;;;;;;;8.85;88.55;99009.86;1679525;85;25608;-60
2022/09/21 02:00:55;;;;;;;9.38;6.10;;;;;;;8.87;88.47;99015.03;1677828;85;25429;-60
2022/09/21 02:03:38;;;;;;;8.03;5.70;;;;;;;8.90;88.36;99007.61;1677987;85;25683;-61
2022/09/21 02:06:06;;;;;;;7.00;5.72;;;;;;;8.89;88.79;99006.78;1677953;85;25474;-60
2022/09/21 02:08:33;;;;;;;8.85;5.90;;;;;;;8.85;88.46;99010.40;1677868;85;27413;-60
2022/09/21 02:11:02;;;;;;;6.85;5.55;;;;;;;8.88;88.59;99012.55;1677672;85;25695;-60
2022/09/21 02:13:33;;;;;;;10.35;5.67;;;;;;;8.93;88.53;99013.03;1677656;85;25490;-60
2022/09/21 02:16:24;;;;;;;;;;;;;;;8.96;88.37;99020.10;1680043;85;25786;-60
2022/09/21 02:19:21;;;;;;;8.18;5.40;;;;;;;8.91;88.37;99019.61;1678018;85;25651;-60
2022/09/21 02:22:12;;;;;;;8.55;6.12;;;;;;;8.89;88.61;99025.09;1677589;85;25878;-60
2022/09/21 02:24:57;;;;;;;7.58;5.40;;;;;;;8.87;88.74;99027.33;1677804;85;25678;-60
2022/09/21 02:27:52;;;;;;;7.62;5.37;;;;;;;8.84;88.54;99025.97;1677920;85;25680;-60
2022/09/21 02:30:24;;;;;;;7.15;4.87;;;;;;;8.85;88.56;99026.25;1677870;85;26633;-60
2022/09/21 02:33:28;;;;;;;6.83;5.30;;;;;;;8.85;88.30;99031.72;1682043;84;25638;-60
2022/09/21 02:36:08;;;;;;;9.43;5.95;;;;;;;8.85;88.48;99029.53;1685193;84;27598;-60
2022/09/21 02:38:52;;;;;;;8.08;5.62;;;;;;;8.82;88.33;99028.20;1685300;84;25614;-60
2022/09/21 02:41:30;;;;;;;8.58;5.65;;;;;;;8.85;88.30;99019.96;1685534;83;25454;-60
2022/09/21 02:44:19;;;;;;;9.23;6.20;;;;;;;8.83;88.30;99029.00;1685251;84;25744;-60
2022/09/21 02:46:53;;;;;;;10.18;6.87;;;;;;;8.82;88.49;99029.57;1685287;84;25662;-59
2022/09/21 02:49:30;;;;;;;10.90;6.35;;;;;;;8.81;88.29;99032.02;1682258;84;27479;-60
2022/09/21 02:52:04;;;;;;;9.80;6.12;;;;;;;8.80;88.14;99027.67;1685137;84;25615;-60
2022/09/21 02:54:33;;;;;;;10.75;7.05;;;;;;;8.77;88.41;99033.72;1685595;84;25627;-60
2022/09/21 02:57:01;;;;;;;10.28;6.35;;;;;;;8.77;88.39;99029.62;1685138;84;25731;-60
2022/09/21 02:59:28;;;;;;;8.43;6.22;;;;;;;8.74;88.44;99033.77;1684919;84;25675;-60
2022/09/21 03:01:57;;;;;;;9.15;5.92;;;;;;;8.73;88.38;99039.52;1685203;84;28295;-60
2022/09/21 03:04:24;;;;;;;9.40;6.47;;;;;;;8.72;88.42;99038.70;1658177;85;25914;-59
2022/09/21 03:06:50;;;;;;;8.60;6.50;;;;;;;8.76;88.44;99044.41;1685115;84;25517;-59
2022/09/21 03:09:17;;;;;;;10.13;6.67;;;;;;;8.76;88.78;99047.95;1684988;84;25450;-59
2022/09/21 03:11:43;;;;;;;10.68;7.50;;;;;;;8.76;88.46;99043.86;1685194;84;25472;-60
2022/09/21 03:14:09;;;;;;;12.68;7.35;;;;;;;8.78;88.73;99049.03;1685483;84;27580;-60
2022/09/21 03:16:36;;;;;;;10.35;6.90;;;;;;;8.78;88.47;99052.56;1685060;85;25472;-60
2022/09/21 03:19:04;;;;;;;11.88;7.03;;;;;;;8.78;88.37;99047.09;1684784;84;25469;-59
2022/09/21 03:21:30;;;;;;;11.15;7.03;;;;;;;8.78;88.46;99049.83;1685124;84;25702;-60
2022/09/21 03:23:56;;;;;;;9.50;6.45;;;;;;;8.78;88.46;99056.66;1685378;84;25410;-59
2022/09/21 03:26:22;;;;;;;9.38;5.55;;;;;;;8.79;88.31;99056.12;1685571;84;27626;-60
2022/09/21 03:28:49;;;;;;;11.25;6.53;;;;;;;8.78;88.30;99058.59;1684917;84;25942;-59
2022/09/21 03:31:16;;;;;;;10.28;6.92;;;;;;;8.74;88.27;99061.09;1685275;85;25430;-60
2022/09/21 03:33:42;;;;;;;11.20;6.30;;;;;;;8.73;88.32;99065.48;1684814;84;26606;-59
2022/09/21 03:36:09;;;;;;;10.82;6.33;;;;;;;8.71;88.40;99065.77;1685293;84;25507;-59
2022/09/21 03:38:36;;;;;;;12.55;7.90;;;;;;;8.71;88.36;99071.23;1685078;84;27496;-59
2022/09/21 03:41:03;;;;;;;9.68;5.72;;;;;;;8.69;88.41;99067.97;1685099;84;25567;-59
2022/09/21 03:43:29;;;;;;;9.70;5.83;;;;;;;8.64;88.44;99068.84;1685271;84;25621;-59
2022/09/21 03:45:56;;;;;;;12.13;7.12;;;;;;;8.60;88.60;99072.44;1684911;84;25754;-59
2022/09/21 03:48:23;;;;;;;9.70;6.60;;;;;;;8.63;88.48;99078.69;1685035;84;25652;-60
2022/09/21 03:50:50;;;;;;;11.28;7.00;;;;;;;8.60;88.58;99075.99;1685001;84;28235;-59
2022/09/21 03:53:16;;;;;;;11.53;6.90;;;;;;;8.56;88.69;99076.86;1685165;84;25632;-59
2022/09/21 03:55:42;;;;;;;13.22;7.28;;;;;;;8.56;88.88;99084.52;1685158;84;25695;-60
2022/09/21 03:58:09;;;;;;;10.88;6.87;;;;;;;8.58;89.02;99080.13;1685106;84;26530;-59
2022/09/21 04:00:37;;;;;;;11.50;7.25;;;;;;;8.57;88.90;99079.30;1685194;84;25698;-59
2022/09/21 04:03:04;;;;;;;20.48;9.83;;;;;;;8.55;88.90;99084.23;1684892;84;28663;-59
2022/09/21 04:05:31;;;;;;;12.78;7.45;;;;;;;8.53;88.95;99085.86;1685367;84;25469;-59
2022/09/21 04:07:57;;;;;;;15.95;8.93;;;;;;;8.51;89.28;99083.16;1685355;84;25547;-59
2022/09/21 04:10:32;;;;;;;14.45;8.50;;;;;;;8.50;89.02;99087.83;1685278;85;26162;-59
2022/09/21 04:13:00;;;;;;;14.38;7.50;;;;;;;8.53;89.50;99091.32;1684196;84;25622;-59
2022/09/21 04:15:26;;;;;;;14.47;7.95;;;;;;;8.53;89.21;99087.22;1685303;84;28256;-59
2022/09/21 04:17:53;;;;;;;13.83;8.53;;;;;;;8.53;89.17;99087.22;1685132;85;25474;-60
2022/09/21 04:20:20;;;;;;;13.40;8.65;;;;;;;8.53;89.06;99089.16;1685356;84;25652;-59
2022/09/21 04:22:47;;;;;;;15.38;8.78;;;;;;;8.52;89.06;99091.64;1685082;85;25690;-62
2022/09/21 04:25:14;;;;;;;15.50;8.68;;;;;;;8.56;89.28;99094.62;1685126;84;25661;-59
2022/09/21 04:27:41;;;;;;;15.88;8.83;;;;;;;8.59;89.12;99093.50;1685184;84;27423;-60
2022/09/21 04:30:12;;;;;;;13.83;7.40;;;;;;;8.60;89.01;99096.48;1684970;84;25966;-59
2022/09/21 04:32:39;;;;;;;13.95;8.63;;;;;;;8.61;89.31;99098.10;1684416;84;25453;-59
2022/09/21 04:35:06;;;;;;;17.95;9.30;;;;;;;8.58;89.13;99101.98;1685281;84;25962;-59
2022/09/21 04:37:32;;;;;;;15.13;9.25;;;;;;;8.59;89.23;99099.50;1685560;84;25584;-59
2022/09/21 04:39:58;;;;;;;18.60;9.25;;;;;;;8.62;89.07;99100.30;1685597;84;28253;-60
2022/09/21 04:42:26;;;;;;;14.55;8.65;;;;;;;8.58;89.16;99101.98;1684934;84;25639;-59
2022/09/21 04:44:52;;;;;;;18.20;9.80;;;;;;;8.57;89.43;99101.70;1685081;84;25690;-60
2022/09/21 04:47:22;;;;;;;17.37;9.93;;;;;;;8.57;89.29;99100.34;1685417;84;26070;-59
2022/09/21 04:49:47;;;;;;;16.93;9.38;;;;;;;8.60;89.36;99098.39;1685788;82;25679;-59
2022/09/21 04:52:12;;;;;;;17.37;10.05;;;;;;;8.61;89.22;99101.41;1684971;85;27368;-61
2022/09/21 04:54:39;;;;;;;20.02;10.32;;;;;;;8.64;89.12;99100.25;1685366;84;25658;-59
2022/09/21 04:57:05;;;;;;;15.75;9.45;;;;;;;8.66;89.18;99108.16;1685074;85;25776;-60
2022/09/21 04:59:32;;;;;;;17.40;9.80;;;;;;;8.69;89.11;99102.69;1684994;84;25817;-58
2022/09/21 05:01:58;;;;;;;16.85;9.45;;;;;;;8.72;89.21;99102.11;1680393;84;25578;-60
2022/09/21 05:04:24;;;;;;;17.35;10.18;;;;;;;8.75;89.35;99096.86;1682314;84;27410;-59
2022/09/21 05:06:50;;;;;;;17.30;10.20;;;;;;;8.77;89.02;99104.23;1681776;84;25694;-59
2022/09/21 05:12:01;;;;;;;16.70;10.03;;;;;;;8.87;88.98;99103.28;1684927;84;25458;-60
2022/09/21 05:14:28;;;;;;;17.02;9.93;;;;;;;8.91;88.93;99107.08;1685329;84;25434;-60
2022/09/21 05:16:54;;;;;;;16.02;10.08;;;;;;;8.90;88.65;99109.53;1681964;84;27479;-59
2022/09/21 05:19:21;;;;;;;20.20;11.45;;;;;;;8.93;88.76;99110.89;1684588;84;27125;-59
2022/09/21 05:21:47;;;;;;;17.12;11.38;;;;;;;8.94;88.72;99107.04;1685110;85;25684;-59
2022/09/21 05:24:14;;;;;;;21.90;12.73;;;;;;;8.94;88.91;99114.42;1685300;84;25746;-59
2022/09/21 05:26:40;;;;;;;19.82;11.80;;;;;;;8.93;88.96;99108.16;1681040;84;25660;-59
2022/09/21 05:29:08;;;;;;;16.57;10.32;;;;;;;8.92;89.08;99113.34;1685188;84;28170;-60
2022/09/21 05:31:49;;;;;;;18.15;10.58;;;;;;;8.93;89.15;99115.53;1685475;84;25619;-60
2022/09/21 05:34:48;;;;;;;16.27;9.80;;;;;;;8.96;89.26;99099.38;1679489;84;25640;-60
2022/09/21 05:37:49;;;;;;;17.55;9.45;;;;;;;9.01;88.84;99113.53;1665625;85;25814;-60
2022/09/21 05:40:17;;;;;;;14.98;8.60;;;;;;;9.00;88.88;99122.28;1677800;85;25585;-60
2022/09/21 05:42:45;;;;;;;13.60;9.03;;;;;;;8.97;88.79;99122.03;1677809;85;27627;-61
2022/09/21 05:45:19;;;;;;;14.53;9.00;;;;;;;8.92;89.02;99122.91;1677729;85;26163;-60
2022/09/21 05:47:57;;;;;;;16.97;10.03;;;;;;;8.93;89.24;99135.48;1677589;85;25604;-60
2022/09/21 05:50:44;;;;;;;16.85;9.23;;;;;;;8.96;89.27;99136.81;1677990;85;26559;-61
2022/09/21 05:53:22;;;;;;;16.50;9.43;;;;;;;8.95;89.28;99139.30;1678035;85;25663;-60
2022/09/21 05:55:56;;;;;;;16.52;9.58;;;;;;;8.99;88.85;99143.07;1675586;85;28713;-60
2022/09/21 05:59:04;;;;;;;16.80;9.33;;;;;;;9.02;89.00;99146.05;1673915;85;25652;-61
2022/09/21 06:02:19;;;;;;;18.80;11.20;;;;;;;9.04;89.18;99141.66;1677617;85;25918;-60
2022/09/21 06:04:48;;;;;;;17.65;10.78;;;;;;;9.06;88.95;99146.26;1677578;85;25817;-59
2022/09/21 06:07:14;;;;;;;17.80;10.28;;;;;;;9.10;89.13;99150.03;1677125;85;25747;-60
2022/09/21 06:09:40;;;;;;;16.80;9.93;;;;;;;9.11;89.01;99147.58;1678015;85;27396;-60
2022/09/21 06:12:10;;;;;;;18.07;11.33;;;;;;;9.11;89.45;99145.39;1677815;85;25685;-61
2022/09/21 06:14:37;;;;;;;14.30;8.58;;;;;;;9.11;88.96;99149.48;1677579;85;25607;-60
2022/09/21 06:17:04;;;;;;;14.13;8.63;;;;;;;9.15;89.05;99149.98;1678026;85;25812;-60
2022/09/21 06:19:30;;;;;;;14.03;8.48;;;;;;;9.20;88.82;99154.58;1677616;85;25594;-62
2022/09/21 06:21:57;;;;;;;18.02;10.08;;;;;;;9.27;88.85;99141.92;1677826;85;28034;-61
2022/09/21 06:24:23;;;;;;;18.90;11.35;;;;;;;9.37;88.70;99148.63;1677791;85;25806;-60
2022/09/21 06:26:49;;;;;;;18.48;12.07;;;;;;;9.42;88.75;99140.91;1677601;85;25636;-60
2022/09/21 06:29:22;;;;;;;18.77;11.80;;;;;;;9.47;88.68;99142.19;1677888;85;25806;-61
2022/09/21 06:31:44;;;;;;;20.40;11.90;;;;;;;9.51;88.45;99145.98;1678590;83;25655;-60
2022/09/21 06:34:11;;;;;;;19.23;11.05;;;;;;;9.56;88.50;99145.64;1681558;85;27486;-60
2022/09/21 06:36:37;;;;;;;21.80;11.18;;;;;;;9.59;88.47;99141.78;1684895;84;25679;-61
2022/09/21 06:39:04;;;;;;;19.60;11.05;;;;;;;9.60;88.14;99147.50;1685255;84;25410;-60
2022/09/21 06:41:31;;;;;;;19.25;11.40;;;;;;;9.56;88.26;99146.47;1684941;84;25785;-60
2022/09/21 06:43:57;;;;;;;17.17;10.80;;;;;;;9.57;88.25;99151.38;1685204;84;25647;-61
2022/09/21 06:46:24;;;;;;;21.12;10.88;;;;;;;9.57;88.45;99150.83;1685135;85;27582;-60
2022/09/21 06:48:50;;;;;;;17.17;10.88;;;;;;;9.54;88.33;99152.23;1685057;84;25568;-61
2022/09/21 06:51:19;;;;;;;18.35;10.98;;;;;;;9.60;88.65;99161.73;1684765;85;25455;-61
2022/09/21 06:53:46;;;;;;;19.10;10.95;;;;;;;9.61;88.08;99157.33;1685054;83;25698;-60
2022/09/21 06:56:13;;;;;;;18.20;9.90;;;;;;;9.63;88.27;99159.77;1685148;85;25644;-60
2022/09/21 06:58:39;;;;;;;19.75;10.93;;;;;;;9.67;88.19;99166.27;1682751;84;27429;-60
2022/09/21 07:01:21;;;;;;;17.60;10.23;;;;;;;9.70;88.14;99173.09;1684587;84;25732;-61
2022/09/21 07:03:50;;;;;;;15.28;9.13;;;;;;;9.70;88.36;99173.09;1685116;85;25655;-61
2022/09/21 07:06:19;;;;;;;16.93;9.58;;;;;;;9.70;87.96;99173.89;1685202;84;25851;-60
2022/09/21 07:08:47;;;;;;;15.58;9.38;;;;;;;9.74;87.95;99174.12;1685266;84;25410;-60
2022/09/21 07:11:15;;;;;;;16.05;9.38;;;;;;;9.75;87.96;99181.22;1684551;85;27456;-60
2022/09/21 07:13:41;;;;;;;15.08;8.95;;;;;;;9.76;88.02;99182.87;1684946;85;25478;-61
2022/09/21 07:16:09;;;;;;;15.63;8.85;;;;;;;9.81;88.27;99180.04;1685035;84;25639;-61
2022/09/21 07:18:39;;;;;;;15.28;8.23;;;;;;;9.89;88.07;99182.67;1685048;84;25709;-61
2022/09/21 07:21:08;;;;;;;17.15;9.43;;;;;;;9.92;87.71;99182.08;1685271;84;25673;-60
2022/09/21 07:23:36;;;;;;;14.98;9.08;;;;;;;9.93;87.69;99183.70;1685139;84;27389;-60
2022/09/21 07:26:06;;;;;;;16.00;9.00;;;;;;;9.96;87.94;99176.83;1685087;84;26714;-60
2022/09/21 07:28:34;;;;;;;14.00;8.40;;;;;;;10.03;87.79;99186.84;1684997;84;25433;-61
2022/09/21 07:31:07;;;;;;;15.48;8.90;;;;;;;10.07;87.53;99182.40;1685129;84;25698;-60
2022/09/21 07:33:34;;;;;;;18.80;9.93;;;;;;;10.11;87.10;99184.00;1684903;84;25661;-60
2022/09/21 07:36:08;;;;;;;20.32;10.40;;;;;;;10.13;86.97;99190.00;1685499;84;27259;-60
2022/09/21 07:38:34;;;;;;;17.27;9.30;;;;;;;10.19;86.88;99190.73;1686171;82;25695;-60
2022/09/21 07:41:04;;;;;;;12.88;7.75;;;;;;;10.24;86.97;99192.83;1685581;84;25679;-60
2022/09/21 07:43:30;;;;;;;13.75;7.37;;;;;;;10.26;86.38;99194.72;1684907;84;25759;-60
2022/09/21 07:46:05;;;;;;;13.18;8.68;;;;;;;10.28;86.20;99197.16;1684990;84;25584;-60
2022/09/21 07:48:31;;;;;;;12.40;8.13;;;;;;;10.37;86.47;99198.66;1685140;84;27566;-60
2022/09/21 07:51:04;;;;;;;12.95;7.37;;;;;;;10.41;86.11;99195.02;1685241;84;25400;-61
2022/09/21 07:53:34;;;;;;;13.75;7.85;;;;;;;10.44;86.06;99199.08;1684338;85;25520;-61
2022/09/21 07:56:05;;;;;;;14.03;7.60;;;;;;;10.49;85.98;99194.92;1684886;84;25706;-60
2022/09/21 08:01:17;;;;;;;15.40;8.30;;;;;;;10.63;86.31;99201.82;1681337;84;26469;-60
2022/09/21 08:03:43;;;;;;;14.10;8.55;;;;;;;10.63;85.94;99198.26;1685131;85;25647;-60
2022/09/21 08:06:10;;;;;;;17.95;8.30;;;;;;;10.60;86.04;99203.80;1685106;84;25619;-60
2022/09/21 08:08:38;;;;;;;10.88;6.67;;;;;;;10.62;86.28;99213.88;1685080;84;25798;-60
2022/09/21 08:11:06;;;;;;;12.43;6.90;;;;;;;10.64;85.27;99213.03;1685081;85;25683;-60
2022/09/21 08:13:33;;;;;;;11.12;7.28;;;;;;;10.61;85.72;99209.52;1685255;84;27393;-60
2022/09/21 08:16:02;;;;;;;12.75;8.33;;;;;;;10.57;85.25;99215.35;1685160;84;25469;-59
2022/09/21 08:18:30;;;;;;;13.85;7.97;;;;;;;10.50;85.49;99216.27;1685380;84;25678;-60
2022/09/21 08:21:01;;;;;;;17.45;10.90;;;;;;;10.54;86.20;99209.89;1685277;84;26656;-60
2022/09/21 08:23:29;;;;;;;17.92;10.75;;;;;;;10.67;86.24;99212.98;1685275;84;25663;-62
2022/09/21 08:26:01;;;;;;;21.75;11.78;;;;;;;10.77;85.93;99216.91;1685341;84;27511;-61
2022/09/21 08:28:30;;;;;;;20.85;13.72;;;;;;;10.86;85.37;99214.85;1685195;84;25845;-61
2022/09/21 08:31:03;;;;;;;14.63;8.40;;;;;;;10.90;85.41;99209.84;1685444;83;25563;-60
2022/09/21 08:33:31;;;;;;;36.03;18.42;;;;;;;10.91;85.00;99215.56;1685334;84;25659;-61
2022/09/21 08:36:00;;;;;;;29.35;14.05;;;;;;;10.92;85.18;99219.13;1680005;84;25652;-61
2022/09/21 08:38:29;;;;;;;27.27;12.63;;;;;;;10.93;84.59;99219.95;1680075;85;27375;-61
2022/09/21 08:40:56;;;;;;;71.70;25.35;;;;;;;10.99;84.85;99226.95;1679766;85;26055;-60
2022/09/21 08:43:37;;;;;;;42.25;18.30;;;;;;;11.09;84.12;99221.84;1680606;85;25635;-61
2022/09/21 08:46:09;;;;;;;17.30;9.48;;;;;;;11.20;84.74;99219.72;1679546;85;34765;-61
2022/09/21 08:48:40;;;;;;;11.97;6.97;;;;;;;11.36;83.58;99225.16;1679950;84;25695;-61
2022/09/21 08:51:12;;;;;;;;;;;;;;;11.53;84.21;99217.69;1680983;85;27454;-61
2022/09/21 08:53:44;;;;;;;47.70;21.00;;;;;;;11.66;84.07;99224.84;1680073;85;25475;-60
2022/09/21 08:56:13;;;;;;;51.25;23.85;;;;;;;11.70;82.94;99218.16;1678631;85;25701;-60
2022/09/21 08:58:40;;;;;;;38.13;16.27;;;;;;;11.68;82.47;99226.70;1680161;84;25797;-60
2022/09/21 09:01:33;;;;;;;23.70;12.65;;;;;;;11.63;81.44;99224.09;1680363;84;25755;-61
2022/09/21 09:04:29;;;;;;;24.77;13.18;;;;;;;11.63;82.29;99220.76;1677848;85;27418;-61
2022/09/21 09:07:22;;;;;;;25.85;15.38;;;;;;;11.72;82.29;99231.03;1678512;85;25592;-60
2022/09/21 09:10:15;;;;;;;12.70;7.37;;;;;;;11.76;82.42;99230.11;1680185;84;25584;-60
2022/09/21 09:13:21;;;;;;;8.33;5.60;;;;;;;11.78;82.08;99218.82;1679525;84;25729;-60
2022/09/21 09:16:21;;;;;;;13.13;6.40;;;;;;;11.91;81.79;99228.95;1677662;83;25609;-60
2022/09/21 09:19:28;;;;;;;7.75;5.28;;;;;;;12.21;81.02;99227.79;1672347;85;27467;-60
2022/09/21 09:21:56;;;;;;;6.45;4.22;;;;;;;12.53;80.33;99217.69;1664928;85;25668;-60
2022/09/21 09:24:51;;;;;;;7.15;4.58;;;;;;;12.73;78.30;99223.78;1678847;85;25646;-60
2022/09/21 09:27:26;;;;;;;4.72;3.98;;;;;;;12.77;77.15;99218.72;1678674;85;25761;-60
2022/09/21 09:30:22;;;;;;;5.47;4.55;;;;;;;12.97;77.25;99217.94;1678637;84;26396;-60
2022/09/21 09:33:21;;;;;;;7.60;4.12;;;;;;;13.04;76.86;99220.24;1651285;85;27460;-62
2022/09/21 09:35:52;;;;;;;7.10;4.87;;;;;;;12.99;76.89;99223.94;1678324;84;25694;-61
2022/09/21 09:38:38;;;;;;;6.80;4.45;;;;;;;12.87;77.76;99217.63;1652076;85;25642;-60
2022/09/21 09:41:30;;;;;;;5.08;3.87;;;;;;;12.80;79.47;99213.14;1677686;85;25742;-60
2022/09/21 09:44:14;;;;;;;5.62;3.87;;;;;;;12.73;79.58;99206.73;1678264;85;25595;-59
2022/09/21 09:46:52;;;;;;;5.55;3.80;;;;;;;12.66;80.36;99198.09;1677743;85;27815;-61
2022/09/21 09:49:48;;;;;;;4.47;3.50;;;;;;;12.75;81.63;99204.46;1677455;85;25439;-62
2022/09/21 09:52:16;;;;;;;8.98;4.78;;;;;;;12.78;80.88;99205.20;1677617;85;25468;-62
2022/09/21 09:54:43;;;;;;;6.60;3.85;;;;;;;12.98;81.22;99209.13;1677514;85;27882;-63
2022/09/21 09:57:10;;;;;;;6.22;4.20;;;;;;;13.11;79.14;99210.96;1677716;85;25638;-62
2022/09/21 09:59:52;;;;;;;6.85;3.65;;;;;;;13.11;79.74;99219.22;1656412;85;27493;-62
2022/09/21 10:02:26;;;;;;;10.95;4.03;;;;;;;13.05;78.03;99211.67;1677688;85;25677;-62
2022/09/21 10:05:05;;;;;;;9.78;3.85;;;;;;;12.93;78.56;99208.70;1677142;85;25638;-62
2022/09/21 10:07:46;;;;;;;5.22;3.52;;;;;;;12.86;77.68;99209.14;1677732;85;25693;-62
2022/09/21 10:10:39;;;;;;;5.22;3.37;;;;;;;12.87;78.84;99207.20;1677626;85;25622;-63
2022/09/21 10:13:19;;;;;;;4.45;3.20;;;;;;;12.98;78.52;99190.66;1677692;85;27676;-62
2022/09/21 10:15:50;;;;;;;;;;;;;;;12.98;78.52;99190.66;1679586;85;25700;-61
2022/09/21 10:18:20;;;;;;;;;;;;;;;13.14;79.73;99202.07;1680365;85;25617;-61
2022/09/21 10:21:04;;;;;;;4.90;2.80;;;;;;;13.33;79.91;99198.81;1677061;85;25753;-63
2022/09/21 10:23:32;;;;;;;4.78;3.40;;;;;;;13.44;78.30;99204.26;1677696;85;25650;-61
2022/09/21 10:26:10;;;;;;;7.12;4.20;;;;;;;13.45;77.63;99203.15;1677783;85;27390;-62
2022/09/21 10:28:37;;;;;;;6.20;4.15;;;;;;;13.45;78.28;99205.90;1677509;85;25681;-61
2022/09/21 10:31:25;;;;;;;5.22;3.92;;;;;;;13.47;77.91;99200.08;1677713;85;25423;-61
2022/09/21 10:34:14;;;;;;;4.83;3.80;;;;;;;13.45;78.13;99199.57;1673104;83;26175;-61
2022/09/21 10:36:53;;;;;;;5.58;3.75;;;;;;;13.61;78.15;99201.33;1683046;84;25808;-60
2022/09/21 10:39:29;;;;;;;4.25;3.30;;;;;;;13.81;77.01;99204.05;1683819;84;27346;-61
2022/09/21 10:42:12;;;;;;;4.15;3.37;;;;;;;13.90;75.91;99203.48;1672195;83;25913;-60
2022/09/21 10:44:45;;;;;;;4.67;2.87;;;;;;;14.19;77.79;99203.97;1669976;84;25707;-60
2022/09/21 10:47:23;;;;;;;5.92;3.08;;;;;;;14.39;76.12;99206.64;1684162;84;27575;-60
2022/09/21 10:50:06;;;;;;;8.53;4.87;;;;;;;14.28;72.97;99209.51;1684871;84;25872;-60
2022/09/21 10:52:37;;;;;;;3.50;2.90;;;;;;;13.79;73.79;99196.69;1685322;85;27426;-60
2022/09/21 10:55:08;;;;;;;5.28;3.08;;;;;;;13.79;74.69;99196.69;1685045;85;25719;-60
2022/09/21 10:57:35;;;;;;;7.90;5.33;;;;;;;13.79;74.69;99196.69;1681138;85;26114;-59
2022/09/21 11:00:28;;;;;;;9.43;6.20;;;;;;;13.85;73.22;99206.42;1657467;85;26321;-59
2022/09/21 11:02:59;;;;;;;14.70;8.35;;;;;;;13.93;73.76;99213.05;1685403;84;25484;-59
2022/09/21 11:05:34;;;;;;;12.50;7.92;;;;;;;13.95;71.65;99212.16;1685276;85;28209;-59
2022/09/21 11:08:18;;;;;;;27.50;14.95;;;;;;;13.95;71.65;99212.16;1684756;84;25905;-60
2022/09/21 11:11:13;;;;;;;10.72;6.72;;;;;;;14.00;72.62;99210.64;1684289;84;25635;-60
2022/09/21 11:13:51;;;;;;;13.78;6.17;;;;;;;14.06;72.24;99207.16;1685125;84;25780;-60
2022/09/21 11:16:32;;;;;;;21.12;10.55;;;;;;;14.63;70.85;99200.37;1684819;84;25485;-61
2022/09/21 11:19:30;;;;;;;22.20;11.70;;;;;;;14.63;70.85;99200.37;1685801;83;27427;-60
2022/09/21 11:22:35;;;;;;;10.98;6.60;;;;;;;15.17;72.03;99203.25;1684807;84;25646;-60
2022/09/21 11:25:39;;;;;;;6.40;4.40;;;;;;;15.47;68.21;99194.97;1685006;84;25499;-60
2022/09/21 11:28:29;;;;;;;5.08;3.20;;;;;;;15.51;66.80;99187.63;1685140;84;26122;-60
2022/09/21 11:31:30;;;;;;;3.62;2.50;;;;;;;15.76;66.95;99193.33;1685169;85;25483;-60
2022/09/21 11:34:18;;;;;;;3.60;2.77;;;;;;;16.26;63.42;99199.73;1682391;84;27666;-60
2022/09/21 11:37:15;;;;;;;3.40;2.85;;;;;;;16.59;64.68;99188.42;1662953;85;25485;-60
2022/09/21 11:40:14;;;;;;;3.37;2.52;;;;;;;16.98;63.52;99194.50;1678901;84;25892;-60
2022/09/21 11:42:58;;;;;;;3.45;2.72;;;;;;;17.22;61.17;99197.11;1678827;84;25758;-61
2022/09/21 11:45:41;;;;;;;6.28;2.83;;;;;;;17.28;60.54;99187.98;1679005;85;25422;-60
2022/09/21 11:48:16;;;;;;;4.53;2.70;;;;;;;17.38;61.84;99192.23;1678691;85;27369;-61
2022/09/21 11:51:22;;;;;;;3.22;2.42;;;;;;;17.62;60.30;99192.00;1670972;85;25649;-60
2022/09/21 11:54:36;;;;;;;2.72;2.27;;;;;;;17.78;61.33;99181.81;1678347;85;25480;-60
2022/09/21 11:57:32;;;;;;;1.98;1.70;;;;;;;17.65;56.61;99185.17;1678478;85;27816;-60
2022/09/21 12:00:16;;;;;;;2.92;1.95;;;;;;;17.97;57.53;99180.39;1679011;85;25632;-60
2022/09/21 12:03:24;;;;;;;3.08;2.12;;;;;;;17.70;53.87;99183.34;1678490;84;27456;-60
2022/09/21 12:06:32;;;;;;;2.80;1.85;;;;;;;17.30;55.38;99181.53;1678629;85;25824;-60
2022/09/21 12:09:43;;;;;;;3.80;2.62;;;;;;;17.22;56.79;99180.48;1679134;84;25607;-60
2022/09/21 12:12:38;;;;;;;4.80;2.67;;;;;;;16.78;54.70;99167.16;1678710;84;25760;-60
2022/09/21 12:15:31;;;;;;;3.42;2.35;;;;;;;16.48;57.79;99166.73;1622937;87;25752;-60
2022/09/21 12:18:30;;;;;;;3.52;2.67;;;;;;;16.46;57.04;99166.84;1622688;88;28042;-60